sensor_id;sensor_type;location;lat;lon;timestamp;P1;durP1;ratioP1;P2;durP2;ratioP2
73168;SDS011;61379;59.732;30.468;2023-09-12T00:00:07;11.32;;;9.73;;
73168;SDS011;61379;59.732;30.468;2023-09-12T00:02:35;10.32;;;9.32;;
73168;SDS011;61379;59.732;30.468;2023-09-12T00:05:03;13.40;;;10.15;;
73168;SDS011;61379;59.732;30.468;2023-09-12T00:07:31;11.25;;;9.90;;
73168;SDS011;61379;59.732;30.468;2023-09-12T00:09:58;10.55;;;8.93;;
73168;SDS011;61379;59.732;30.468;2023-09-12T00:12:25;11.93;;;9.55;;
73168;SDS011;61379;59.732;30.468;2023-09-12T00:14:51;11.23;;;10.10;;
73168;SDS011;61379;59.732;30.468;2023-09-12T00:17:18;12.80;;;10.23;;
73168;SDS011;61379;59.732;30.468;2023-09-12T00:19:45;12.50;;;11.30;;
73168;SDS011;61379;59.732;30.468;2023-09-12T00:22:13;14.60;;;11.30;;
73168;SDS011;61379;59.732;30.468;2023-09-12T00:24:40;11.68;;;10.07;;
73168;SDS011;61379;59.732;30.468;2023-09-12T00:27:07;12.27;;;10.30;;
73168;SDS011;61379;59.732;30.468;2023-09-12T00:29:34;13.45;;;10.68;;
73168;SDS011;61379;59.732;30.468;2023-09-12T00:32:01;11.95;;;10.23;;
73168;SDS011;61379;59.732;30.468;2023-09-12T00:34:28;10.32;;;9.30;;
73168;SDS011;61379;59.732;30.468;2023-09-12T00:36:54;12.60;;;10.57;;
73168;SDS011;61379;59.732;30.468;2023-09-12T00:39:22;12.30;;;10.90;;
73168;SDS011;61379;59.732;30.468;2023-09-12T00:41:49;13.02;;;11.73;;
73168;SDS011;61379;59.732;30.468;2023-09-12T00:44:16;12.52;;;11.32;;
73168;SDS011;61379;59.732;30.468;2023-09-12T00:46:43;13.35;;;11.95;;
73168;SDS011;61379;59.732;30.468;2023-09-12T00:49:11;11.68;;;10.55;;
73168;SDS011;61379;59.732;30.468;2023-09-12T00:51:38;11.80;;;10.57;;
73168;SDS011;61379;59.732;30.468;2023-09-12T00:54:05;11.15;;;10.00;;
73168;SDS011;61379;59.732;30.468;2023-09-12T00:56:33;12.57;;;10.70;;
73168;SDS011;61379;59.732;30.468;2023-09-12T00:59:00;11.43;;;10.07;;
73168;SDS011;61379;59.732;30.468;2023-09-12T01:01:27;11.32;;;10.23;;
73168;SDS011;61379;59.732;30.468;2023-09-12T01:03:54;11.02;;;9.88;;
73168;SDS011;61379;59.732;30.468;2023-09-12T01:06:22;11.07;;;9.50;;
73168;SDS011;61379;59.732;30.468;2023-09-12T01:11:17;10.90;;;9.73;;
73168;SDS011;61379;59.732;30.468;2023-09-12T01:13:45;10.27;;;8.90;;
73168;SDS011;61379;59.732;30.468;2023-09-12T01:16:12;12.77;;;10.18;;
73168;SDS011;61379;59.732;30.468;2023-09-12T01:18:39;9.93;;;8.77;;
73168;SDS011;61379;59.732;30.468;2023-09-12T01:23:58;11.10;;;9.40;;
73168;SDS011;61379;59.732;30.468;2023-09-12T01:26:30;10.50;;;7.78;;
73168;SDS011;61379;59.732;30.468;2023-09-12T01:29:01;10.05;;;9.05;;
73168;SDS011;61379;59.732;30.468;2023-09-12T01:33:56;9.80;;;8.80;;
73168;SDS011;61379;59.732;30.468;2023-09-12T01:36:23;11.60;;;9.70;;
73168;SDS011;61379;59.732;30.468;2023-09-12T01:38:50;11.55;;;10.23;;
73168;SDS011;61379;59.732;30.468;2023-09-12T01:41:16;11.32;;;10.23;;
73168;SDS011;61379;59.732;30.468;2023-09-12T01:43:43;11.88;;;9.25;;
73168;SDS011;61379;59.732;30.468;2023-09-12T01:46:12;10.95;;;9.38;;
73168;SDS011;61379;59.732;30.468;2023-09-12T01:48:39;9.88;;;8.95;;
73168;SDS011;61379;59.732;30.468;2023-09-12T01:51:06;9.73;;;8.93;;
73168;SDS011;61379;59.732;30.468;2023-09-12T01:53:33;9.80;;;8.88;;
73168;SDS011;61379;59.732;30.468;2023-09-12T01:56:01;10.40;;;9.38;;
73168;SDS011;61379;59.732;30.468;2023-09-12T01:58:28;10.13;;;9.23;;
73168;SDS011;61379;59.732;30.468;2023-09-12T02:00:55;11.10;;;10.10;;
73168;SDS011;61379;59.732;30.468;2023-09-12T02:03:23;10.27;;;9.27;;
73168;SDS011;61379;59.732;30.468;2023-09-12T02:05:50;9.68;;;8.77;;
73168;SDS011;61379;59.732;30.468;2023-09-12T02:08:17;9.57;;;8.68;;
73168;SDS011;61379;59.732;30.468;2023-09-12T02:10:44;10.00;;;9.07;;
73168;SDS011;61379;59.732;30.468;2023-09-12T02:13:11;9.40;;;8.38;;
73168;SDS011;61379;59.732;30.468;2023-09-12T02:15:38;8.90;;;8.10;;
73168;SDS011;61379;59.732;30.468;2023-09-12T02:18:05;9.50;;;8.70;;
73168;SDS011;61379;59.732;30.468;2023-09-12T02:20:33;9.45;;;8.65;;
73168;SDS011;61379;59.732;30.468;2023-09-12T02:23:00;9.63;;;8.90;;
73168;SDS011;61379;59.732;30.468;2023-09-12T02:25:26;9.25;;;7.60;;
73168;SDS011;61379;59.732;30.468;2023-09-12T02:27:53;9.02;;;8.23;;
73168;SDS011;61379;59.732;30.468;2023-09-12T02:30:20;9.48;;;8.68;;
73168;SDS011;61379;59.732;30.468;2023-09-12T02:32:47;8.98;;;8.18;;
73168;SDS011;61379;59.732;30.468;2023-09-12T02:35:14;9.95;;;9.00;;
73168;SDS011;61379;59.732;30.468;2023-09-12T02:37:42;10.02;;;9.23;;
73168;SDS011;61379;59.732;30.468;2023-09-12T02:40:09;10.20;;;9.30;;
73168;SDS011;61379;59.732;30.468;2023-09-12T02:42:37;11.65;;;9.93;;
73168;SDS011;61379;59.732;30.468;2023-09-12T02:45:04;10.95;;;10.05;;
73168;SDS011;61379;59.732;30.468;2023-09-12T02:47:32;11.98;;;10.98;;
73168;SDS011;61379;59.732;30.468;2023-09-12T02:49:59;9.70;;;8.63;;
73168;SDS011;61379;59.732;30.468;2023-09-12T02:52:26;13.45;;;9.57;;
73168;SDS011;61379;59.732;30.468;2023-09-12T02:54:54;11.82;;;10.73;;
73168;SDS011;61379;59.732;30.468;2023-09-12T02:57:20;11.18;;;10.15;;
73168;SDS011;61379;59.732;30.468;2023-09-12T02:59:47;11.85;;;10.70;;
73168;SDS011;61379;59.732;30.468;2023-09-12T03:02:14;10.77;;;9.68;;
73168;SDS011;61379;59.732;30.468;2023-09-12T03:04:41;12.13;;;10.38;;
73168;SDS011;61379;59.732;30.468;2023-09-12T03:07:08;10.57;;;9.57;;
73168;SDS011;61379;59.732;30.468;2023-09-12T03:09:34;10.77;;;9.77;;
73168;SDS011;61379;59.732;30.468;2023-09-12T03:12:04;11.75;;;10.52;;
73168;SDS011;61379;59.732;30.468;2023-09-12T03:14:31;11.35;;;10.35;;
73168;SDS011;61379;59.732;30.468;2023-09-12T03:16:58;12.02;;;10.93;;
73168;SDS011;61379;59.732;30.468;2023-09-12T03:19:25;11.77;;;10.77;;
73168;SDS011;61379;59.732;30.468;2023-09-12T03:21:51;11.15;;;10.07;;
73168;SDS011;61379;59.732;30.468;2023-09-12T03:24:18;11.90;;;10.90;;
73168;SDS011;61379;59.732;30.468;2023-09-12T03:26:46;11.38;;;10.23;;
73168;SDS011;61379;59.732;30.468;2023-09-12T03:29:14;12.20;;;10.13;;
73168;SDS011;61379;59.732;30.468;2023-09-12T03:31:41;11.55;;;10.45;;
73168;SDS011;61379;59.732;30.468;2023-09-12T03:34:08;11.32;;;10.27;;
73168;SDS011;61379;59.732;30.468;2023-09-12T03:36:35;10.70;;;9.70;;
73168;SDS011;61379;59.732;30.468;2023-09-12T03:39:01;10.75;;;9.77;;
73168;SDS011;61379;59.732;30.468;2023-09-12T03:41:30;10.18;;;9.15;;
73168;SDS011;61379;59.732;30.468;2023-09-12T03:43:57;11.10;;;9.95;;
73168;SDS011;61379;59.732;30.468;2023-09-12T03:46:25;10.38;;;9.38;;
73168;SDS011;61379;59.732;30.468;2023-09-12T03:48:52;9.32;;;8.50;;
73168;SDS011;61379;59.732;30.468;2023-09-12T03:51:18;9.95;;;9.05;;
73168;SDS011;61379;59.732;30.468;2023-09-12T03:53:45;9.82;;;8.90;;
73168;SDS011;61379;59.732;30.468;2023-09-12T03:58:41;10.50;;;9.40;;
73168;SDS011;61379;59.732;30.468;2023-09-12T04:01:08;10.25;;;9.25;;
73168;SDS011;61379;59.732;30.468;2023-09-12T04:03:36;9.70;;;8.82;;
73168;SDS011;61379;59.732;30.468;2023-09-12T04:06:03;11.10;;;10.25;;
73168;SDS011;61379;59.732;30.468;2023-09-12T04:08:30;10.55;;;9.70;;
73168;SDS011;61379;59.732;30.468;2023-09-12T04:10:58;10.77;;;9.82;;
73168;SDS011;61379;59.732;30.468;2023-09-12T04:13:24;10.63;;;9.68;;
73168;SDS011;61379;59.732;30.468;2023-09-12T04:15:51;12.00;;;10.80;;
73168;SDS011;61379;59.732;30.468;2023-09-12T04:18:18;13.65;;;11.32;;
73168;SDS011;61379;59.732;30.468;2023-09-12T04:20:46;13.07;;;11.88;;
73168;SDS011;61379;59.732;30.468;2023-09-12T04:23:13;11.52;;;10.43;;
73168;SDS011;61379;59.732;30.468;2023-09-12T04:25:41;11.38;;;10.38;;
73168;SDS011;61379;59.732;30.468;2023-09-12T04:28:07;13.50;;;10.25;;
73168;SDS011;61379;59.732;30.468;2023-09-12T04:30:35;11.90;;;10.80;;
73168;SDS011;61379;59.732;30.468;2023-09-12T04:33:01;10.70;;;9.70;;
73168;SDS011;61379;59.732;30.468;2023-09-12T04:35:28;11.68;;;9.80;;
73168;SDS011;61379;59.732;30.468;2023-09-12T04:37:57;11.05;;;10.05;;
73168;SDS011;61379;59.732;30.468;2023-09-12T04:40:23;10.48;;;9.60;;
73168;SDS011;61379;59.732;30.468;2023-09-12T04:42:50;11.25;;;10.27;;
73168;SDS011;61379;59.732;30.468;2023-09-12T04:45:17;12.77;;;10.23;;
73168;SDS011;61379;59.732;30.468;2023-09-12T04:47:44;11.05;;;9.93;;
73168;SDS011;61379;59.732;30.468;2023-09-12T04:50:10;10.63;;;9.52;;
73168;SDS011;61379;59.732;30.468;2023-09-12T04:52:37;10.82;;;9.60;;
73168;SDS011;61379;59.732;30.468;2023-09-12T04:55:06;11.45;;;10.35;;
73168;SDS011;61379;59.732;30.468;2023-09-12T04:57:33;10.63;;;9.57;;
73168;SDS011;61379;59.732;30.468;2023-09-12T05:00:00;10.98;;;9.88;;
73168;SDS011;61379;59.732;30.468;2023-09-12T05:02:31;12.30;;;9.65;;
73168;SDS011;61379;59.732;30.468;2023-09-12T05:04:57;10.50;;;8.90;;
73168;SDS011;61379;59.732;30.468;2023-09-12T05:07:24;11.45;;;9.32;;
73168;SDS011;61379;59.732;30.468;2023-09-12T05:09:51;8.68;;;7.78;;
73168;SDS011;61379;59.732;30.468;2023-09-12T05:12:19;10.32;;;9.40;;
73168;SDS011;61379;59.732;30.468;2023-09-12T05:14:46;10.35;;;8.57;;
73168;SDS011;61379;59.732;30.468;2023-09-12T05:17:13;10.60;;;8.57;;
73168;SDS011;61379;59.732;30.468;2023-09-12T05:19:39;11.50;;;9.05;;
73168;SDS011;61379;59.732;30.468;2023-09-12T05:22:06;13.20;;;9.85;;
73168;SDS011;61379;59.732;30.468;2023-09-12T05:24:33;11.07;;;9.10;;
73168;SDS011;61379;59.732;30.468;2023-09-12T05:27:00;11.70;;;10.40;;
73168;SDS011;61379;59.732;30.468;2023-09-12T05:29:28;10.98;;;9.88;;
73168;SDS011;61379;59.732;30.468;2023-09-12T05:31:55;11.25;;;8.52;;
73168;SDS011;61379;59.732;30.468;2023-09-12T05:34:21;10.85;;;9.80;;
73168;SDS011;61379;59.732;30.468;2023-09-12T05:36:48;11.48;;;10.38;;
73168;SDS011;61379;59.732;30.468;2023-09-12T05:39:15;9.88;;;8.90;;
73168;SDS011;61379;59.732;30.468;2023-09-12T05:41:42;12.25;;;9.70;;
73168;SDS011;61379;59.732;30.468;2023-09-12T05:44:09;10.55;;;9.55;;
73168;SDS011;61379;59.732;30.468;2023-09-12T05:46:39;10.90;;;9.93;;
73168;SDS011;61379;59.732;30.468;2023-09-12T05:49:06;10.40;;;9.50;;
73168;SDS011;61379;59.732;30.468;2023-09-12T05:51:33;11.52;;;10.45;;
73168;SDS011;61379;59.732;30.468;2023-09-12T05:53:59;9.48;;;8.57;;
73168;SDS011;61379;59.732;30.468;2023-09-12T05:56:28;12.52;;;8.77;;
73168;SDS011;61379;59.732;30.468;2023-09-12T05:58:55;10.35;;;9.45;;
73168;SDS011;61379;59.732;30.468;2023-09-12T06:01:22;10.63;;;8.57;;
73168;SDS011;61379;59.732;30.468;2023-09-12T06:03:50;9.90;;;8.93;;
73168;SDS011;61379;59.732;30.468;2023-09-12T06:06:17;12.63;;;9.07;;
73168;SDS011;61379;59.732;30.468;2023-09-12T06:08:43;9.85;;;8.43;;
73168;SDS011;61379;59.732;30.468;2023-09-12T06:11:10;13.60;;;9.32;;
73168;SDS011;61379;59.732;30.468;2023-09-12T06:13:37;9.93;;;9.00;;
73168;SDS011;61379;59.732;30.468;2023-09-12T06:16:04;10.63;;;9.52;;
73168;SDS011;61379;59.732;30.468;2023-09-12T06:18:31;9.85;;;8.95;;
73168;SDS011;61379;59.732;30.468;2023-09-12T06:20:59;10.73;;;9.75;;
73168;SDS011;61379;59.732;30.468;2023-09-12T06:23:27;10.20;;;9.20;;
73168;SDS011;61379;59.732;30.468;2023-09-12T06:25:54;9.90;;;9.02;;
73168;SDS011;61379;59.732;30.468;2023-09-12T06:28:25;11.18;;;10.10;;
73168;SDS011;61379;59.732;30.468;2023-09-12T06:30:52;11.02;;;9.68;;
73168;SDS011;61379;59.732;30.468;2023-09-12T06:33:19;11.60;;;8.95;;
73168;SDS011;61379;59.732;30.468;2023-09-12T06:35:47;8.82;;;7.93;;
73168;SDS011;61379;59.732;30.468;2023-09-12T06:38:15;10.95;;;9.95;;
73168;SDS011;61379;59.732;30.468;2023-09-12T06:40:42;10.40;;;9.32;;
73168;SDS011;61379;59.732;30.468;2023-09-12T06:43:09;10.40;;;9.48;;
73168;SDS011;61379;59.732;30.468;2023-09-12T06:45:36;11.85;;;8.77;;
73168;SDS011;61379;59.732;30.468;2023-09-12T06:48:04;11.20;;;10.02;;
73168;SDS011;61379;59.732;30.468;2023-09-12T06:50:31;11.23;;;10.23;;
73168;SDS011;61379;59.732;30.468;2023-09-12T06:52:58;11.27;;;10.18;;
73168;SDS011;61379;59.732;30.468;2023-09-12T06:55:27;12.38;;;10.73;;
73168;SDS011;61379;59.732;30.468;2023-09-12T06:57:54;11.27;;;10.27;;
73168;SDS011;61379;59.732;30.468;2023-09-12T07:00:21;11.45;;;8.60;;
73168;SDS011;61379;59.732;30.468;2023-09-12T07:02:47;11.90;;;10.88;;
73168;SDS011;61379;59.732;30.468;2023-09-12T07:05:14;12.20;;;11.20;;
73168;SDS011;61379;59.732;30.468;2023-09-12T07:07:41;10.85;;;9.73;;
73168;SDS011;61379;59.732;30.468;2023-09-12T07:10:08;11.65;;;10.68;;
73168;SDS011;61379;59.732;30.468;2023-09-12T07:12:37;10.18;;;9.20;;
73168;SDS011;61379;59.732;30.468;2023-09-12T07:15:04;12.52;;;9.00;;
73168;SDS011;61379;59.732;30.468;2023-09-12T07:17:31;11.65;;;10.35;;
73168;SDS011;61379;59.732;30.468;2023-09-12T07:19:58;11.82;;;10.57;;
73168;SDS011;61379;59.732;30.468;2023-09-12T07:22:25;11.25;;;10.45;;
73168;SDS011;61379;59.732;30.468;2023-09-12T07:24:52;11.95;;;10.77;;
73168;SDS011;61379;59.732;30.468;2023-09-12T07:27:19;11.70;;;10.65;;
73168;SDS011;61379;59.732;30.468;2023-09-12T07:29:47;11.82;;;10.80;;
73168;SDS011;61379;59.732;30.468;2023-09-12T07:32:14;12.57;;;11.20;;
73168;SDS011;61379;59.732;30.468;2023-09-12T07:34:40;10.30;;;9.05;;
73168;SDS011;61379;59.732;30.468;2023-09-12T07:37:10;10.52;;;9.70;;
73168;SDS011;61379;59.732;30.468;2023-09-12T07:39:37;11.02;;;10.05;;
73168;SDS011;61379;59.732;30.468;2023-09-12T07:42:04;10.10;;;9.15;;
73168;SDS011;61379;59.732;30.468;2023-09-12T07:44:31;10.48;;;9.45;;
73168;SDS011;61379;59.732;30.468;2023-09-12T07:46:59;10.52;;;9.52;;
73168;SDS011;61379;59.732;30.468;2023-09-12T07:49:26;10.45;;;9.43;;
73168;SDS011;61379;59.732;30.468;2023-09-12T07:51:53;8.57;;;7.78;;
73168;SDS011;61379;59.732;30.468;2023-09-12T07:54:22;14.07;;;9.80;;
73168;SDS011;61379;59.732;30.468;2023-09-12T07:56:48;10.38;;;9.45;;
73168;SDS011;61379;59.732;30.468;2023-09-12T07:59:15;10.65;;;9.80;;
73168;SDS011;61379;59.732;30.468;2023-09-12T08:01:42;11.10;;;9.57;;
73168;SDS011;61379;59.732;30.468;2023-09-12T08:04:10;10.25;;;8.60;;
73168;SDS011;61379;59.732;30.468;2023-09-12T08:06:38;10.00;;;9.00;;
73168;SDS011;61379;59.732;30.468;2023-09-12T08:09:04;10.35;;;8.65;;
73168;SDS011;61379;59.732;30.468;2023-09-12T08:11:31;8.98;;;8.32;;
73168;SDS011;61379;59.732;30.468;2023-09-12T08:13:58;9.38;;;8.45;;
73168;SDS011;61379;59.732;30.468;2023-09-12T08:16:25;12.02;;;8.50;;
73168;SDS011;61379;59.732;30.468;2023-09-12T08:18:51;10.55;;;9.55;;
73168;SDS011;61379;59.732;30.468;2023-09-12T08:21:20;8.60;;;7.85;;
73168;SDS011;61379;59.732;30.468;2023-09-12T08:23:46;9.50;;;8.68;;
73168;SDS011;61379;59.732;30.468;2023-09-12T08:26:13;9.85;;;8.98;;
73168;SDS011;61379;59.732;30.468;2023-09-12T08:28:40;10.52;;;9.77;;
73168;SDS011;61379;59.732;30.468;2023-09-12T08:31:07;10.20;;;9.30;;
73168;SDS011;61379;59.732;30.468;2023-09-12T08:33:34;11.77;;;9.13;;
73168;SDS011;61379;59.732;30.468;2023-09-12T08:36:00;9.27;;;8.45;;
73168;SDS011;61379;59.732;30.468;2023-09-12T08:38:28;9.75;;;8.88;;
73168;SDS011;61379;59.732;30.468;2023-09-12T08:40:55;9.20;;;8.50;;
73168;SDS011;61379;59.732;30.468;2023-09-12T08:43:22;11.98;;;9.35;;
73168;SDS011;61379;59.732;30.468;2023-09-12T08:45:49;10.35;;;9.30;;
73168;SDS011;61379;59.732;30.468;2023-09-12T08:48:16;9.25;;;8.55;;
73168;SDS011;61379;59.732;30.468;2023-09-12T08:50:44;9.80;;;8.80;;
73168;SDS011;61379;59.732;30.468;2023-09-12T08:53:12;9.88;;;8.88;;
73168;SDS011;61379;59.732;30.468;2023-09-12T08:55:42;9.77;;;8.82;;
73168;SDS011;61379;59.732;30.468;2023-09-12T08:58:08;9.75;;;8.85;;
73168;SDS011;61379;59.732;30.468;2023-09-12T09:00:35;10.27;;;9.35;;
73168;SDS011;61379;59.732;30.468;2023-09-12T09:03:03;10.00;;;8.68;;
73168;SDS011;61379;59.732;30.468;2023-09-12T09:05:30;10.52;;;9.68;;
73168;SDS011;61379;59.732;30.468;2023-09-12T09:07:57;10.57;;;9.68;;
73168;SDS011;61379;59.732;30.468;2023-09-12T09:10:25;9.55;;;8.70;;
73168;SDS011;61379;59.732;30.468;2023-09-12T09:12:58;16.17;;;10.52;;
73168;SDS011;61379;59.732;30.468;2023-09-12T09:15:26;11.93;;;10.82;;
73168;SDS011;61379;59.732;30.468;2023-09-12T09:17:53;10.77;;;9.70;;
73168;SDS011;61379;59.732;30.468;2023-09-12T09:20:27;10.60;;;9.60;;
73168;SDS011;61379;59.732;30.468;2023-09-12T09:22:55;10.52;;;9.63;;
73168;SDS011;61379;59.732;30.468;2023-09-12T09:25:22;10.20;;;9.40;;
73168;SDS011;61379;59.732;30.468;2023-09-12T09:27:49;9.93;;;9.05;;
73168;SDS011;61379;59.732;30.468;2023-09-12T09:30:17;10.60;;;9.68;;
73168;SDS011;61379;59.732;30.468;2023-09-12T09:32:45;10.27;;;9.32;;
73168;SDS011;61379;59.732;30.468;2023-09-12T09:35:13;7.72;;;6.97;;
73168;SDS011;61379;59.732;30.468;2023-09-12T09:37:41;9.20;;;8.50;;
73168;SDS011;61379;59.732;30.468;2023-09-12T09:40:08;10.07;;;9.05;;
73168;SDS011;61379;59.732;30.468;2023-09-12T09:42:35;10.65;;;9.55;;
73168;SDS011;61379;59.732;30.468;2023-09-12T09:45:02;12.18;;;9.57;;
73168;SDS011;61379;59.732;30.468;2023-09-12T09:47:31;10.70;;;9.80;;
73168;SDS011;61379;59.732;30.468;2023-09-12T09:49:58;10.68;;;9.43;;
73168;SDS011;61379;59.732;30.468;2023-09-12T09:52:25;10.63;;;9.73;;
73168;SDS011;61379;59.732;30.468;2023-09-12T09:54:53;11.02;;;10.13;;
73168;SDS011;61379;59.732;30.468;2023-09-12T09:57:19;11.77;;;10.85;;
73168;SDS011;61379;59.732;30.468;2023-09-12T09:59:48;10.55;;;9.55;;
73168;SDS011;61379;59.732;30.468;2023-09-12T10:02:16;10.82;;;9.85;;
73168;SDS011;61379;59.732;30.468;2023-09-12T10:04:48;11.55;;;10.57;;
73168;SDS011;61379;59.732;30.468;2023-09-12T10:07:15;10.77;;;9.75;;
73168;SDS011;61379;59.732;30.468;2023-09-12T10:09:42;11.70;;;10.60;;
73168;SDS011;61379;59.732;30.468;2023-09-12T10:12:10;11.88;;;10.80;;
73168;SDS011;61379;59.732;30.468;2023-09-12T10:14:37;11.27;;;10.27;;
73168;SDS011;61379;59.732;30.468;2023-09-12T10:17:05;10.82;;;9.85;;
73168;SDS011;61379;59.732;30.468;2023-09-12T10:19:35;12.30;;;11.30;;
73168;SDS011;61379;59.732;30.468;2023-09-12T10:22:06;11.85;;;10.73;;
73168;SDS011;61379;59.732;30.468;2023-09-12T10:24:33;11.88;;;10.40;;
73168;SDS011;61379;59.732;30.468;2023-09-12T10:27:02;12.68;;;11.60;;
73168;SDS011;61379;59.732;30.468;2023-09-12T10:29:29;11.60;;;10.35;;
73168;SDS011;61379;59.732;30.468;2023-09-12T10:31:57;12.85;;;11.68;;
73168;SDS011;61379;59.732;30.468;2023-09-12T10:34:24;12.38;;;11.45;;
73168;SDS011;61379;59.732;30.468;2023-09-12T10:36:51;10.27;;;9.38;;
73168;SDS011;61379;59.732;30.468;2023-09-12T10:39:20;11.80;;;10.73;;
73168;SDS011;61379;59.732;30.468;2023-09-12T10:41:47;11.68;;;10.57;;
73168;SDS011;61379;59.732;30.468;2023-09-12T10:44:15;11.32;;;10.32;;
73168;SDS011;61379;59.732;30.468;2023-09-12T10:46:42;10.68;;;9.65;;
73168;SDS011;61379;59.732;30.468;2023-09-12T10:49:10;14.18;;;10.80;;
73168;SDS011;61379;59.732;30.468;2023-09-12T10:51:38;11.50;;;10.50;;
73168;SDS011;61379;59.732;30.468;2023-09-12T10:54:06;11.55;;;10.65;;
73168;SDS011;61379;59.732;30.468;2023-09-12T10:56:35;11.70;;;10.68;;
73168;SDS011;61379;59.732;30.468;2023-09-12T10:59:11;11.90;;;10.75;;
73168;SDS011;61379;59.732;30.468;2023-09-12T11:01:39;11.45;;;10.30;;
73168;SDS011;61379;59.732;30.468;2023-09-12T11:06:55;10.85;;;9.32;;
73168;SDS011;61379;59.732;30.468;2023-09-12T11:09:23;11.02;;;10.02;;
73168;SDS011;61379;59.732;30.468;2023-09-12T11:11:56;11.32;;;9.48;;
73168;SDS011;61379;59.732;30.468;2023-09-12T11:14:23;10.85;;;10.02;;
73168;SDS011;61379;59.732;30.468;2023-09-12T11:19:42;9.75;;;9.05;;
73168;SDS011;61379;59.732;30.468;2023-09-12T11:22:20;10.63;;;9.63;;
73168;SDS011;61379;59.732;30.468;2023-09-12T11:24:47;12.18;;;11.00;;
73168;SDS011;61379;59.732;30.468;2023-09-12T11:27:15;10.20;;;9.40;;
73168;SDS011;61379;59.732;30.468;2023-09-12T11:29:42;11.75;;;10.70;;
73168;SDS011;61379;59.732;30.468;2023-09-12T11:32:09;11.40;;;10.32;;
73168;SDS011;61379;59.732;30.468;2023-09-12T11:34:36;11.40;;;10.32;;
73168;SDS011;61379;59.732;30.468;2023-09-12T11:37:03;12.35;;;11.35;;
73168;SDS011;61379;59.732;30.468;2023-09-12T11:39:31;12.00;;;10.95;;
73168;SDS011;61379;59.732;30.468;2023-09-12T11:41:59;12.00;;;10.98;;
73168;SDS011;61379;59.732;30.468;2023-09-12T11:44:27;11.00;;;9.95;;
73168;SDS011;61379;59.732;30.468;2023-09-12T11:46:56;11.52;;;10.48;;
73168;SDS011;61379;59.732;30.468;2023-09-12T11:49:28;11.35;;;10.43;;
73168;SDS011;61379;59.732;30.468;2023-09-12T11:51:55;11.00;;;10.23;;
73168;SDS011;61379;59.732;30.468;2023-09-12T11:54:24;12.13;;;11.15;;
73168;SDS011;61379;59.732;30.468;2023-09-12T11:56:51;12.63;;;11.63;;
73168;SDS011;61379;59.732;30.468;2023-09-12T11:59:22;12.23;;;11.18;;
73168;SDS011;61379;59.732;30.468;2023-09-12T12:01:50;12.93;;;11.63;;
73168;SDS011;61379;59.732;30.468;2023-09-12T12:04:17;12.88;;;11.82;;
73168;SDS011;61379;59.732;30.468;2023-09-12T12:06:44;11.93;;;11.07;;
73168;SDS011;61379;59.732;30.468;2023-09-12T12:09:10;12.73;;;11.57;;
73168;SDS011;61379;59.732;30.468;2023-09-12T12:11:38;11.35;;;10.55;;
73168;SDS011;61379;59.732;30.468;2023-09-12T12:14:10;12.18;;;11.25;;
73168;SDS011;61379;59.732;30.468;2023-09-12T12:16:37;12.60;;;11.55;;
73168;SDS011;61379;59.732;30.468;2023-09-12T12:19:05;13.30;;;12.18;;
73168;SDS011;61379;59.732;30.468;2023-09-12T12:21:32;12.20;;;11.20;;
73168;SDS011;61379;59.732;30.468;2023-09-12T12:23:59;12.20;;;11.20;;
73168;SDS011;61379;59.732;30.468;2023-09-12T12:26:27;13.07;;;12.00;;
73168;SDS011;61379;59.732;30.468;2023-09-12T12:28:53;12.15;;;11.15;;
73168;SDS011;61379;59.732;30.468;2023-09-12T12:31:20;11.93;;;11.02;;
73168;SDS011;61379;59.732;30.468;2023-09-12T12:33:49;12.07;;;10.98;;
73168;SDS011;61379;59.732;30.468;2023-09-12T12:36:18;12.10;;;11.20;;
73168;SDS011;61379;59.732;30.468;2023-09-12T12:38:45;11.65;;;10.75;;
73168;SDS011;61379;59.732;30.468;2023-09-12T12:41:13;13.23;;;11.88;;
73168;SDS011;61379;59.732;30.468;2023-09-12T12:43:39;12.82;;;11.93;;
73168;SDS011;61379;59.732;30.468;2023-09-12T12:46:10;12.63;;;11.43;;
73168;SDS011;61379;59.732;30.468;2023-09-12T12:48:37;11.43;;;10.63;;
73168;SDS011;61379;59.732;30.468;2023-09-12T12:51:13;11.23;;;10.25;;
73168;SDS011;61379;59.732;30.468;2023-09-12T12:53:43;10.40;;;9.52;;
73168;SDS011;61379;59.732;30.468;2023-09-12T12:56:14;12.40;;;11.45;;
73168;SDS011;61379;59.732;30.468;2023-09-12T12:58:47;13.30;;;12.02;;
73168;SDS011;61379;59.732;30.468;2023-09-12T13:01:14;13.02;;;12.00;;
73168;SDS011;61379;59.732;30.468;2023-09-12T13:03:41;13.13;;;11.93;;
73168;SDS011;61379;59.732;30.468;2023-09-12T13:06:08;13.63;;;12.35;;
73168;SDS011;61379;59.732;30.468;2023-09-12T13:08:39;11.52;;;10.60;;
73168;SDS011;61379;59.732;30.468;2023-09-12T13:11:07;11.07;;;10.07;;
73168;SDS011;61379;59.732;30.468;2023-09-12T13:13:34;13.20;;;12.30;;
73168;SDS011;61379;59.732;30.468;2023-09-12T13:16:01;11.48;;;10.68;;
73168;SDS011;61379;59.732;30.468;2023-09-12T13:18:30;10.95;;;9.50;;
73168;SDS011;61379;59.732;30.468;2023-09-12T13:20:56;11.63;;;10.40;;
73168;SDS011;61379;59.732;30.468;2023-09-12T13:23:23;12.25;;;11.07;;
73168;SDS011;61379;59.732;30.468;2023-09-12T13:25:50;12.60;;;11.52;;
73168;SDS011;61379;59.732;30.468;2023-09-12T13:28:19;11.40;;;10.40;;
73168;SDS011;61379;59.732;30.468;2023-09-12T13:30:45;12.18;;;11.00;;
73168;SDS011;61379;59.732;30.468;2023-09-12T13:33:13;11.63;;;10.80;;
73168;SDS011;61379;59.732;30.468;2023-09-12T13:35:40;12.90;;;11.45;;
73168;SDS011;61379;59.732;30.468;2023-09-12T13:38:07;14.73;;;12.23;;
73168;SDS011;61379;59.732;30.468;2023-09-12T13:40:36;9.95;;;8.95;;
73168;SDS011;61379;59.732;30.468;2023-09-12T13:43:03;12.23;;;10.90;;
73168;SDS011;61379;59.732;30.468;2023-09-12T13:45:31;11.93;;;10.68;;
73168;SDS011;61379;59.732;30.468;2023-09-12T13:47:58;14.40;;;11.20;;
73168;SDS011;61379;59.732;30.468;2023-09-12T13:50:25;12.43;;;11.43;;
73168;SDS011;61379;59.732;30.468;2023-09-12T13:52:53;12.77;;;11.55;;
73168;SDS011;61379;59.732;30.468;2023-09-12T13:55:20;12.18;;;10.60;;
73168;SDS011;61379;59.732;30.468;2023-09-12T13:57:47;10.73;;;9.65;;
73168;SDS011;61379;59.732;30.468;2023-09-12T14:00:14;12.43;;;10.77;;
73168;SDS011;61379;59.732;30.468;2023-09-12T14:02:42;12.77;;;11.18;;
73168;SDS011;61379;59.732;30.468;2023-09-12T14:05:09;11.27;;;10.10;;
73168;SDS011;61379;59.732;30.468;2023-09-12T14:07:37;12.45;;;10.20;;
73168;SDS011;61379;59.732;30.468;2023-09-12T14:10:05;11.23;;;10.00;;
73168;SDS011;61379;59.732;30.468;2023-09-12T14:12:32;11.43;;;10.52;;
73168;SDS011;61379;59.732;30.468;2023-09-12T14:14:59;11.80;;;10.77;;
73168;SDS011;61379;59.732;30.468;2023-09-12T14:17:30;12.57;;;11.48;;
73168;SDS011;61379;59.732;30.468;2023-09-12T14:19:59;13.13;;;12.10;;
73168;SDS011;61379;59.732;30.468;2023-09-12T14:22:25;12.32;;;11.27;;
73168;SDS011;61379;59.732;30.468;2023-09-12T14:24:53;12.85;;;11.77;;
73168;SDS011;61379;59.732;30.468;2023-09-12T14:27:19;12.93;;;11.95;;
73168;SDS011;61379;59.732;30.468;2023-09-12T14:29:46;13.38;;;12.13;;
73168;SDS011;61379;59.732;30.468;2023-09-12T14:32:16;12.63;;;11.40;;